sensor_id;sensor_type;location;lat;lon;timestamp;P1;durP1;ratioP1;P2;durP2;ratioP2
13943;SDS011;7044;53.286;8.534;2022-10-03T00:01:24;8.85;;;1.73;;
13943;SDS011;7044;53.286;8.534;2022-10-03T00:04:10;6.95;;;1.85;;
13943;SDS011;7044;53.286;8.534;2022-10-03T00:06:52;9.82;;;1.70;;
13943;SDS011;7044;53.286;8.534;2022-10-03T00:09:35;6.70;;;1.63;;
13943;SDS011;7044;53.286;8.534;2022-10-03T00:12:13;8.05;;;1.80;;
13943;SDS011;7044;53.286;8.534;2022-10-03T00:14:50;8.27;;;1.40;;
13943;SDS011;7044;53.286;8.534;2022-10-03T00:17:26;9.27;;;1.92;;
13943;SDS011;7044;53.286;8.534;2022-10-03T00:20:04;4.72;;;1.48;;
13943;SDS011;7044;53.286;8.534;2022-10-03T00:22:42;5.38;;;1.67;;
13943;SDS011;7044;53.286;8.534;2022-10-03T00:25:20;7.57;;;1.60;;
13943;SDS011;7044;53.286;8.534;2022-10-03T00:27:54;10.82;;;1.23;;
13943;SDS011;7044;53.286;8.534;2022-10-03T00:30:47;7.78;;;1.27;;
13943;SDS011;7044;53.286;8.534;2022-10-03T00:33:23;13.80;;;1.98;;
13943;SDS011;7044;53.286;8.534;2022-10-03T00:35:58;8.85;;;1.50;;
13943;SDS011;7044;53.286;8.534;2022-10-03T00:41:37;6.13;;;1.45;;
13943;SDS011;7044;53.286;8.534;2022-10-03T00:44:35;10.40;;;1.80;;
13943;SDS011;7044;53.286;8.534;2022-10-03T00:47:22;10.40;;;1.63;;
13943;SDS011;7044;53.286;8.534;2022-10-03T00:50:26;12.73;;;1.80;;
13943;SDS011;7044;53.286;8.534;2022-10-03T00:53:26;7.03;;;1.65;;
13943;SDS011;7044;53.286;8.534;2022-10-03T00:56:16;8.38;;;1.92;;
13943;SDS011;7044;53.286;8.534;2022-10-03T00:59:00;7.25;;;1.92;;
13943;SDS011;7044;53.286;8.534;2022-10-03T01:01:41;5.13;;;1.38;;
13943;SDS011;7044;53.286;8.534;2022-10-03T01:04:25;8.18;;;1.40;;
13943;SDS011;7044;53.286;8.534;2022-10-03T01:07:07;7.32;;;1.88;;
13943;SDS011;7044;53.286;8.534;2022-10-03T01:09:52;5.78;;;1.67;;
13943;SDS011;7044;53.286;8.534;2022-10-03T01:12:48;8.23;;;1.20;;
13943;SDS011;7044;53.286;8.534;2022-10-03T01:15:40;8.82;;;1.35;;
13943;SDS011;7044;53.286;8.534;2022-10-03T01:18:21;8.57;;;1.73;;
13943;SDS011;7044;53.286;8.534;2022-10-03T01:20:59;11.20;;;2.25;;
13943;SDS011;7044;53.286;8.534;2022-10-03T01:23:37;10.52;;;2.20;;
13943;SDS011;7044;53.286;8.534;2022-10-03T01:26:25;10.55;;;1.42;;
13943;SDS011;7044;53.286;8.534;2022-10-03T01:32:38;8.25;;;1.40;;
13943;SDS011;7044;53.286;8.534;2022-10-03T01:35:10;9.18;;;1.60;;
13943;SDS011;7044;53.286;8.534;2022-10-03T01:37:47;11.00;;;1.98;;
13943;SDS011;7044;53.286;8.534;2022-10-03T01:40:24;9.10;;;2.05;;
13943;SDS011;7044;53.286;8.534;2022-10-03T01:42:57;5.72;;;1.35;;
13943;SDS011;7044;53.286;8.534;2022-10-03T01:45:34;8.80;;;1.40;;
13943;SDS011;7044;53.286;8.534;2022-10-03T01:48:13;8.80;;;1.70;;
13943;SDS011;7044;53.286;8.534;2022-10-03T01:50:47;8.38;;;1.70;;
13943;SDS011;7044;53.286;8.534;2022-10-03T01:53:22;8.27;;;1.30;;
13943;SDS011;7044;53.286;8.534;2022-10-03T01:55:57;7.50;;;1.10;;
13943;SDS011;7044;53.286;8.534;2022-10-03T01:58:29;7.38;;;1.70;;
13943;SDS011;7044;53.286;8.534;2022-10-03T02:01:08;8.77;;;1.60;;
13943;SDS011;7044;53.286;8.534;2022-10-03T02:03:42;4.63;;;1.27;;
13943;SDS011;7044;53.286;8.534;2022-10-03T02:06:16;9.85;;;1.52;;
13943;SDS011;7044;53.286;8.534;2022-10-03T02:08:48;3.65;;;0.82;;
13943;SDS011;7044;53.286;8.534;2022-10-03T02:11:25;7.03;;;1.73;;
13943;SDS011;7044;53.286;8.534;2022-10-03T02:13:57;13.20;;;1.65;;
13943;SDS011;7044;53.286;8.534;2022-10-03T02:16:35;12.52;;;1.88;;
13943;SDS011;7044;53.286;8.534;2022-10-03T02:19:11;4.10;;;1.67;;
13943;SDS011;7044;53.286;8.534;2022-10-03T02:21:45;5.07;;;1.63;;
13943;SDS011;7044;53.286;8.534;2022-10-03T02:24:20;5.45;;;1.20;;
13943;SDS011;7044;53.286;8.534;2022-10-03T02:36:06;5.00;;;1.02;;
13943;SDS011;7044;53.286;8.534;2022-10-03T02:41:57;11.27;;;1.73;;
13943;SDS011;7044;53.286;8.534;2022-10-03T02:44:56;3.70;;;1.48;;
13943;SDS011;7044;53.286;8.534;2022-10-03T02:48:03;5.18;;;0.95;;
13943;SDS011;7044;53.286;8.534;2022-10-03T02:51:08;6.10;;;1.30;;
13943;SDS011;7044;53.286;8.534;2022-10-03T02:54:15;8.18;;;1.90;;
13943;SDS011;7044;53.286;8.534;2022-10-03T02:57:10;10.73;;;1.67;;
13943;SDS011;7044;53.286;8.534;2022-10-03T03:00:11;3.92;;;1.17;;
13943;SDS011;7044;53.286;8.534;2022-10-03T03:03:05;6.40;;;1.73;;
13943;SDS011;7044;53.286;8.534;2022-10-03T03:09:16;5.60;;;1.33;;
13943;SDS011;7044;53.286;8.534;2022-10-03T03:18:04;7.05;;;1.15;;
13943;SDS011;7044;53.286;8.534;2022-10-03T03:20:42;7.97;;;1.15;;
13943;SDS011;7044;53.286;8.534;2022-10-03T03:23:28;7.25;;;1.52;;
13943;SDS011;7044;53.286;8.534;2022-10-03T03:26:20;3.67;;;1.05;;
13943;SDS011;7044;53.286;8.534;2022-10-03T03:28:59;2.75;;;1.30;;
13943;SDS011;7044;53.286;8.534;2022-10-03T03:31:35;4.05;;;1.05;;
13943;SDS011;7044;53.286;8.534;2022-10-03T03:34:12;13.93;;;1.58;;
13943;SDS011;7044;53.286;8.534;2022-10-03T03:36:47;6.35;;;1.50;;
13943;SDS011;7044;53.286;8.534;2022-10-03T03:39:26;5.57;;;1.25;;
13943;SDS011;7044;53.286;8.534;2022-10-03T03:42:08;10.25;;;1.13;;
13943;SDS011;7044;53.286;8.534;2022-10-03T03:45:01;10.27;;;1.10;;
13943;SDS011;7044;53.286;8.534;2022-10-03T03:50:47;6.65;;;1.00;;
13943;SDS011;7044;53.286;8.534;2022-10-03T03:53:31;5.68;;;1.38;;
13943;SDS011;7044;53.286;8.534;2022-10-03T03:56:30;5.45;;;1.08;;
13943;SDS011;7044;53.286;8.534;2022-10-03T03:59:10;3.55;;;0.95;;
13943;SDS011;7044;53.286;8.534;2022-10-03T04:01:53;7.25;;;1.30;;
13943;SDS011;7044;53.286;8.534;2022-10-03T04:04:37;7.63;;;1.20;;
13943;SDS011;7044;53.286;8.534;2022-10-03T04:07:14;7.63;;;1.08;;
13943;SDS011;7044;53.286;8.534;2022-10-03T04:10:01;7.07;;;1.58;;
13943;SDS011;7044;53.286;8.534;2022-10-03T04:12:52;5.50;;;1.33;;
13943;SDS011;7044;53.286;8.534;2022-10-03T04:15:40;4.25;;;0.98;;
13943;SDS011;7044;53.286;8.534;2022-10-03T04:21:31;8.27;;;1.55;;
13943;SDS011;7044;53.286;8.534;2022-10-03T04:27:35;8.65;;;1.30;;
13943;SDS011;7044;53.286;8.534;2022-10-03T04:30:18;4.63;;;1.20;;
13943;SDS011;7044;53.286;8.534;2022-10-03T04:33:05;8.38;;;1.52;;
13943;SDS011;7044;53.286;8.534;2022-10-03T04:35:48;4.00;;;1.52;;
13943;SDS011;7044;53.286;8.534;2022-10-03T04:38:42;11.00;;;1.38;;
13943;SDS011;7044;53.286;8.534;2022-10-03T04:41:19;12.57;;;1.88;;
13943;SDS011;7044;53.286;8.534;2022-10-03T04:43:56;7.53;;;1.65;;
13943;SDS011;7044;53.286;8.534;2022-10-03T04:46:29;9.18;;;2.13;;
13943;SDS011;7044;53.286;8.534;2022-10-03T04:49:04;9.00;;;1.42;;
13943;SDS011;7044;53.286;8.534;2022-10-03T04:51:44;4.50;;;1.15;;
13943;SDS011;7044;53.286;8.534;2022-10-03T04:54:21;3.85;;;1.20;;
13943;SDS011;7044;53.286;8.534;2022-10-03T04:56:56;4.00;;;1.20;;
13943;SDS011;7044;53.286;8.534;2022-10-03T04:59:43;7.47;;;1.27;;
13943;SDS011;7044;53.286;8.534;2022-10-03T05:02:22;9.60;;;1.40;;
13943;SDS011;7044;53.286;8.534;2022-10-03T05:05:17;11.07;;;1.77;;
13943;SDS011;7044;53.286;8.534;2022-10-03T05:08:11;5.07;;;1.20;;
13943;SDS011;7044;53.286;8.534;2022-10-03T05:10:50;6.55;;;1.60;;
13943;SDS011;7044;53.286;8.534;2022-10-03T05:13:31;5.65;;;1.63;;
13943;SDS011;7044;53.286;8.534;2022-10-03T05:16:08;7.47;;;1.42;;
13943;SDS011;7044;53.286;8.534;2022-10-03T05:18:45;6.75;;;1.10;;
13943;SDS011;7044;53.286;8.534;2022-10-03T05:21:21;11.10;;;1.73;;
13943;SDS011;7044;53.286;8.534;2022-10-03T05:23:57;6.68;;;1.83;;
13943;SDS011;7044;53.286;8.534;2022-10-03T05:26:34;6.47;;;1.58;;
13943;SDS011;7044;53.286;8.534;2022-10-03T05:29:13;8.18;;;1.48;;
13943;SDS011;7044;53.286;8.534;2022-10-03T05:31:49;9.52;;;1.63;;
13943;SDS011;7044;53.286;8.534;2022-10-03T05:34:31;7.50;;;1.52;;
13943;SDS011;7044;53.286;8.534;2022-10-03T05:37:18;6.80;;;1.30;;
13943;SDS011;7044;53.286;8.534;2022-10-03T05:39:54;5.78;;;1.13;;
13943;SDS011;7044;53.286;8.534;2022-10-03T05:42:33;9.48;;;1.42;;
13943;SDS011;7044;53.286;8.534;2022-10-03T05:45:05;6.30;;;1.50;;
13943;SDS011;7044;53.286;8.534;2022-10-03T05:47:50;13.27;;;2.22;;
13943;SDS011;7044;53.286;8.534;2022-10-03T05:50:33;15.63;;;2.20;;
13943;SDS011;7044;53.286;8.534;2022-10-03T05:53:13;11.05;;;1.92;;
13943;SDS011;7044;53.286;8.534;2022-10-03T05:56:01;3.90;;;0.90;;
13943;SDS011;7044;53.286;8.534;2022-10-03T05:58:51;9.32;;;1.55;;
13943;SDS011;7044;53.286;8.534;2022-10-03T06:07:39;7.90;;;1.48;;
13943;SDS011;7044;53.286;8.534;2022-10-03T06:10:23;5.97;;;1.40;;
13943;SDS011;7044;53.286;8.534;2022-10-03T06:13:14;5.53;;;1.15;;
13943;SDS011;7044;53.286;8.534;2022-10-03T06:15:52;7.43;;;1.30;;
13943;SDS011;7044;53.286;8.534;2022-10-03T06:18:32;3.85;;;1.45;;
13943;SDS011;7044;53.286;8.534;2022-10-03T06:21:36;6.35;;;1.27;;
13943;SDS011;7044;53.286;8.534;2022-10-03T06:27:39;6.70;;;1.35;;
13943;SDS011;7044;53.286;8.534;2022-10-03T06:30:21;9.00;;;1.23;;
13943;SDS011;7044;53.286;8.534;2022-10-03T06:39:33;10.93;;;1.73;;
13943;SDS011;7044;53.286;8.534;2022-10-03T06:42:30;9.65;;;1.50;;
13943;SDS011;7044;53.286;8.534;2022-10-03T06:51:49;5.70;;;1.50;;
13943;SDS011;7044;53.286;8.534;2022-10-03T07:00:59;3.70;;;1.45;;
13943;SDS011;7044;53.286;8.534;2022-10-03T07:03:48;9.65;;;1.55;;
13943;SDS011;7044;53.286;8.534;2022-10-03T07:09:44;13.45;;;1.88;;
13943;SDS011;7044;53.286;8.534;2022-10-03T07:25:00;4.88;;;1.52;;
13943;SDS011;7044;53.286;8.534;2022-10-03T07:27:57;5.97;;;1.45;;
13943;SDS011;7044;53.286;8.534;2022-10-03T07:30:53;12.30;;;1.60;;
13943;SDS011;7044;53.286;8.534;2022-10-03T07:33:37;7.80;;;1.50;;
13943;SDS011;7044;53.286;8.534;2022-10-03T07:36:21;13.13;;;1.33;;
13943;SDS011;7044;53.286;8.534;2022-10-03T07:39:26;11.32;;;1.60;;
13943;SDS011;7044;53.286;8.534;2022-10-03T07:42:39;9.30;;;1.95;;
13943;SDS011;7044;53.286;8.534;2022-10-03T07:48:20;8.35;;;1.63;;
13943;SDS011;7044;53.286;8.534;2022-10-03T07:51:11;4.45;;;1.20;;
13943;SDS011;7044;53.286;8.534;2022-10-03T07:53:59;17.73;;;1.65;;
13943;SDS011;7044;53.286;8.534;2022-10-03T07:56:49;14.35;;;2.10;;
13943;SDS011;7044;53.286;8.534;2022-10-03T08:05:54;11.40;;;1.52;;
13943;SDS011;7044;53.286;8.534;2022-10-03T08:15:01;13.98;;;1.90;;
13943;SDS011;7044;53.286;8.534;2022-10-03T08:23:23;6.47;;;1.33;;
13943;SDS011;7044;53.286;8.534;2022-10-03T08:26:15;9.57;;;1.15;;
13943;SDS011;7044;53.286;8.534;2022-10-03T08:28:50;5.40;;;1.98;;
13943;SDS011;7044;53.286;8.534;2022-10-03T08:31:42;6.30;;;1.40;;
13943;SDS011;7044;53.286;8.534;2022-10-03T08:34:30;9.52;;;1.70;;
13943;SDS011;7044;53.286;8.534;2022-10-03T08:40:43;6.47;;;1.60;;
13943;SDS011;7044;53.286;8.534;2022-10-03T08:43:57;8.25;;;1.70;;
13943;SDS011;7044;53.286;8.534;2022-10-03T08:52:43;4.88;;;1.35;;
13943;SDS011;7044;53.286;8.534;2022-10-03T08:55:37;7.15;;;1.48;;
13943;SDS011;7044;53.286;8.534;2022-10-03T09:01:28;8.35;;;2.00;;
13943;SDS011;7044;53.286;8.534;2022-10-03T09:04:16;11.02;;;1.42;;
13943;SDS011;7044;53.286;8.534;2022-10-03T09:07:12;10.27;;;1.73;;
13943;SDS011;7044;53.286;8.534;2022-10-03T09:10:13;5.53;;;1.20;;
13943;SDS011;7044;53.286;8.534;2022-10-03T09:13:18;9.90;;;1.63;;
13943;SDS011;7044;53.286;8.534;2022-10-03T09:19:18;6.97;;;1.05;;
13943;SDS011;7044;53.286;8.534;2022-10-03T09:22:13;3.38;;;1.17;;
13943;SDS011;7044;53.286;8.534;2022-10-03T09:25:10;6.45;;;1.55;;
13943;SDS011;7044;53.286;8.534;2022-10-03T09:27:56;4.75;;;1.25;;
13943;SDS011;7044;53.286;8.534;2022-10-03T09:31:01;7.28;;;1.60;;
13943;SDS011;7044;53.286;8.534;2022-10-03T09:33:56;4.78;;;1.42;;
13943;SDS011;7044;53.286;8.534;2022-10-03T09:36:44;3.58;;;1.20;;
13943;SDS011;7044;53.286;8.534;2022-10-03T09:39:41;5.88;;;1.20;;
13943;SDS011;7044;53.286;8.534;2022-10-03T09:42:35;6.20;;;1.25;;
13943;SDS011;7044;53.286;8.534;2022-10-03T09:48:51;7.22;;;1.50;;
13943;SDS011;7044;53.286;8.534;2022-10-03T09:51:49;8.50;;;1.52;;
13943;SDS011;7044;53.286;8.534;2022-10-03T09:57:34;5.00;;;1.45;;
13943;SDS011;7044;53.286;8.534;2022-10-03T10:00:19;6.55;;;1.60;;
13943;SDS011;7044;53.286;8.534;2022-10-03T10:06:10;6.57;;;1.30;;
13943;SDS011;7044;53.286;8.534;2022-10-03T10:09:09;5.55;;;1.40;;
13943;SDS011;7044;53.286;8.534;2022-10-03T10:15:02;5.10;;;1.38;;
13943;SDS011;7044;53.286;8.534;2022-10-03T10:17:58;14.23;;;1.33;;
13943;SDS011;7044;53.286;8.534;2022-10-03T10:24:12;6.00;;;1.15;;
13943;SDS011;7044;53.286;8.534;2022-10-03T10:26:54;4.28;;;1.52;;
13943;SDS011;7044;53.286;8.534;2022-10-03T10:29:53;5.93;;;1.38;;
13943;SDS011;7044;53.286;8.534;2022-10-03T10:35:45;6.95;;;1.00;;
13943;SDS011;7044;53.286;8.534;2022-10-03T10:39:01;9.23;;;1.23;;
13943;SDS011;7044;53.286;8.534;2022-10-03T10:42:04;3.20;;;1.10;;
13943;SDS011;7044;53.286;8.534;2022-10-03T10:45:22;5.28;;;1.58;;
13943;SDS011;7044;53.286;8.534;2022-10-03T10:48:13;10.43;;;1.38;;
13943;SDS011;7044;53.286;8.534;2022-10-03T10:54:35;6.25;;;0.93;;
13943;SDS011;7044;53.286;8.534;2022-10-03T10:58:02;4.05;;;0.88;;
13943;SDS011;7044;53.286;8.534;2022-10-03T11:01:09;5.80;;;0.93;;
13943;SDS011;7044;53.286;8.534;2022-10-03T11:06:59;1.92;;;1.00;;
13943;SDS011;7044;53.286;8.534;2022-10-03T11:09:54;2.55;;;0.95;;
13943;SDS011;7044;53.286;8.534;2022-10-03T11:13:02;1.58;;;0.82;;
13943;SDS011;7044;53.286;8.534;2022-10-03T11:22:05;5.05;;;1.10;;
13943;SDS011;7044;53.286;8.534;2022-10-03T11:34:45;3.95;;;1.00;;
13943;SDS011;7044;53.286;8.534;2022-10-03T11:37:49;7.35;;;1.17;;
13943;SDS011;7044;53.286;8.534;2022-10-03T11:40:24;4.57;;;1.02;;
13943;SDS011;7044;53.286;8.534;2022-10-03T11:43:17;2.50;;;0.88;;
13943;SDS011;7044;53.286;8.534;2022-10-03T11:46:20;2.20;;;1.00;;
13943;SDS011;7044;53.286;8.534;2022-10-03T11:48:57;6.68;;;1.05;;
13943;SDS011;7044;53.286;8.534;2022-10-03T11:51:40;3.25;;;1.02;;
13943;SDS011;7044;53.286;8.534;2022-10-03T11:54:18;3.03;;;0.88;;
13943;SDS011;7044;53.286;8.534;2022-10-03T11:56:50;3.53;;;0.98;;
13943;SDS011;7044;53.286;8.534;2022-10-03T11:59:28;4.78;;;0.98;;
13943;SDS011;7044;53.286;8.534;2022-10-03T12:05:00;4.07;;;1.00;;
13943;SDS011;7044;53.286;8.534;2022-10-03T12:07:41;4.90;;;1.75;;
13943;SDS011;7044;53.286;8.534;2022-10-03T12:10:42;5.75;;;1.27;;
13943;SDS011;7044;53.286;8.534;2022-10-03T12:13:15;10.10;;;1.35;;
13943;SDS011;7044;53.286;8.534;2022-10-03T12:15:48;2.28;;;1.08;;
13943;SDS011;7044;53.286;8.534;2022-10-03T12:18:20;1.67;;;0.80;;
13943;SDS011;7044;53.286;8.534;2022-10-03T12:21:03;6.65;;;1.23;;
13943;SDS011;7044;53.286;8.534;2022-10-03T12:23:39;3.88;;;1.25;;
13943;SDS011;7044;53.286;8.534;2022-10-03T12:26:25;3.08;;;1.00;;
13943;SDS011;7044;53.286;8.534;2022-10-03T12:28:58;4.25;;;1.13;;
13943;SDS011;7044;53.286;8.534;2022-10-03T12:31:28;8.05;;;1.30;;
13943;SDS011;7044;53.286;8.534;2022-10-03T12:34:02;6.10;;;1.33;;
13943;SDS011;7044;53.286;8.534;2022-10-03T12:36:45;2.55;;;0.77;;
13943;SDS011;7044;53.286;8.534;2022-10-03T12:39:22;2.85;;;1.23;;
13943;SDS011;7044;53.286;8.534;2022-10-03T12:42:04;5.88;;;1.50;;
13943;SDS011;7044;53.286;8.534;2022-10-03T12:44:48;4.05;;;1.30;;
13943;SDS011;7044;53.286;8.534;2022-10-03T12:47:26;4.43;;;1.33;;
13943;SDS011;7044;53.286;8.534;2022-10-03T12:50:00;3.67;;;1.15;;
13943;SDS011;7044;53.286;8.534;2022-10-03T12:52:37;7.28;;;1.35;;
13943;SDS011;7044;53.286;8.534;2022-10-03T12:55:17;3.80;;;1.38;;
13943;SDS011;7044;53.286;8.534;2022-10-03T12:57:59;2.53;;;1.25;;
13943;SDS011;7044;53.286;8.534;2022-10-03T13:00:33;2.17;;;0.95;;
13943;SDS011;7044;53.286;8.534;2022-10-03T13:03:12;6.18;;;1.33;;
13943;SDS011;7044;53.286;8.534;2022-10-03T13:06:02;2.95;;;1.05;;
13943;SDS011;7044;53.286;8.534;2022-10-03T13:09:05;3.80;;;1.02;;
13943;SDS011;7044;53.286;8.534;2022-10-03T13:11:47;2.25;;;1.10;;
13943;SDS011;7044;53.286;8.534;2022-10-03T13:14:28;5.10;;;1.10;;
13943;SDS011;7044;53.286;8.534;2022-10-03T13:17:06;4.57;;;1.25;;
13943;SDS011;7044;53.286;8.534;2022-10-03T13:19:46;5.10;;;1.40;;
13943;SDS011;7044;53.286;8.534;2022-10-03T13:22:29;5.55;;;1.30;;
13943;SDS011;7044;53.286;8.534;2022-10-03T13:25:05;6.50;;;1.20;;
13943;SDS011;7044;53.286;8.534;2022-10-03T13:27:43;5.10;;;1.17;;
13943;SDS011;7044;53.286;8.534;2022-10-03T13:30:18;2.55;;;0.63;;
13943;SDS011;7044;53.286;8.534;2022-10-03T13:32:49;7.63;;;1.23;;
13943;SDS011;7044;53.286;8.534;2022-10-03T13:35:19;6.43;;;1.25;;
13943;SDS011;7044;53.286;8.534;2022-10-03T13:38:12;6.10;;;1.40;;
13943;SDS011;7044;53.286;8.534;2022-10-03T13:41:04;5.55;;;1.70;;
13943;SDS011;7044;53.286;8.534;2022-10-03T13:43:43;6.63;;;1.38;;
13943;SDS011;7044;53.286;8.534;2022-10-03T13:46:15;4.85;;;1.08;;
13943;SDS011;7044;53.286;8.534;2022-10-03T13:48:49;4.65;;;1.10;;
13943;SDS011;7044;53.286;8.534;2022-10-03T13:51:19;4.82;;;1.27;;
13943;SDS011;7044;53.286;8.534;2022-10-03T13:53:55;5.03;;;0.77;;
13943;SDS011;7044;53.286;8.534;2022-10-03T13:56:33;11.60;;;1.50;;
13943;SDS011;7044;53.286;8.534;2022-10-03T13:59:12;8.80;;;1.05;;
13943;SDS011;7044;53.286;8.534;2022-10-03T14:02:11;4.90;;;1.42;;
13943;SDS011;7044;53.286;8.534;2022-10-03T14:04:49;5.85;;;1.17;;
13943;SDS011;7044;53.286;8.534;2022-10-03T14:07:29;3.33;;;1.02;;
13943;SDS011;7044;53.286;8.534;2022-10-03T14:10:08;11.00;;;1.75;;
13943;SDS011;7044;53.286;8.534;2022-10-03T14:12:49;9.18;;;1.70;;
13943;SDS011;7044;53.286;8.534;2022-10-03T14:15:33;5.22;;;1.17;;
13943;SDS011;7044;53.286;8.534;2022-10-03T14:18:12;12.45;;;1.50;;
13943;SDS011;7044;53.286;8.534;2022-10-03T14:23:44;4.13;;;1.17;;
13943;SDS011;7044;53.286;8.534;2022-10-03T14:26:17;2.50;;;1.00;;
13943;SDS011;7044;53.286;8.534;2022-10-03T14:28:51;4.88;;;1.02;;
13943;SDS011;7044;53.286;8.534;2022-10-03T14:31:25;7.68;;;1.20;;
13943;SDS011;7044;53.286;8.534;2022-10-03T14:34:01;5.47;;;1.25;;
13943;SDS011;7044;53.286;8.534;2022-10-03T14:36:35;2.92;;;1.00;;
13943;SDS011;7044;53.286;8.534;2022-10-03T14:39:21;5.57;;;0.90;;
13943;SDS011;7044;53.286;8.534;2022-10-03T14:42:10;5.38;;;1.15;;
13943;SDS011;7044;53.286;8.534;2022-10-03T14:44:57;5.70;;;1.80;;
13943;SDS011;7044;53.286;8.534;2022-10-03T14:47:32;4.13;;;1.27;;
13943;SDS011;7044;53.286;8.534;2022-10-03T14:50:02;10.38;;;1.55;;
13943;SDS011;7044;53.286;8.534;2022-10-03T14:52:32;4.13;;;0.80;;
13943;SDS011;7044;53.286;8.534;2022-10-03T14:55:06;3.83;;;1.20;;
13943;SDS011;7044;53.286;8.534;2022-10-03T14:57:40;6.88;;;1.20;;
13943;SDS011;7044;53.286;8.534;2022-10-03T15:00:21;4.30;;;1.00;;
13943;SDS011;7044;53.286;8.534;2022-10-03T15:02:53;4.82;;;1.00;;
13943;SDS011;7044;53.286;8.534;2022-10-03T15:05:28;7.40;;;1.73;;
13943;SDS011;7044;53.286;8.534;2022-10-03T15:08:12;6.97;;;1.20;;
13943;SDS011;7044;53.286;8.534;2022-10-03T15:10:41;3.25;;;0.93;;
13943;SDS011;7044;53.286;8.534;2022-10-03T15:13:10;4.13;;;0.95;;
13943;SDS011;7044;53.286;8.534;2022-10-03T15:15:43;4.40;;;1.25;;
13943;SDS011;7044;53.286;8.534;2022-10-03T15:18:13;3.95;;;1.10;;
13943;SDS011;7044;53.286;8.534;2022-10-03T15:20:42;3.45;;;1.13;;
13943;SDS011;7044;53.286;8.534;2022-10-03T15:23:17;6.32;;;1.23;;
13943;SDS011;7044;53.286;8.534;2022-10-03T15:25:46;2.15;;;0.90;;
13943;SDS011;7044;53.286;8.534;2022-10-03T15:28:18;2.55;;;0.93;;
13943;SDS011;7044;53.286;8.534;2022-10-03T15:30:48;3.42;;;1.30;;
13943;SDS011;7044;53.286;8.534;2022-10-03T15:33:20;5.13;;;1.13;;
13943;SDS011;7044;53.286;8.534;2022-10-03T15:35:54;4.72;;;0.90;;
13943;SDS011;7044;53.286;8.534;2022-10-03T15:38:26;2.35;;;0.90;;
13943;SDS011;7044;53.286;8.534;2022-10-03T15:41:05;4.05;;;0.98;;
13943;SDS011;7044;53.286;8.534;2022-10-03T15:43:35;4.65;;;1.20;;
13943;SDS011;7044;53.286;8.534;2022-10-03T15:46:11;3.95;;;1.20;;
13943;SDS011;7044;53.286;8.534;2022-10-03T15:48:43;4.40;;;1.05;;
13943;SDS011;7044;53.286;8.534;2022-10-03T15:54:15;6.95;;;1.63;;
13943;SDS011;7044;53.286;8.534;2022-10-03T15:56:48;4.80;;;1.23;;
13943;SDS011;7044;53.286;8.534;2022-10-03T15:59:20;5.43;;;1.30;;
13943;SDS011;7044;53.286;8.534;2022-10-03T16:01:51;7.25;;;1.25;;
13943;SDS011;7044;53.286;8.534;2022-10-03T16:04:22;3.38;;;0.85;;
13943;SDS011;7044;53.286;8.534;2022-10-03T16:06:53;4.80;;;1.15;;
13943;SDS011;7044;53.286;8.534;2022-10-03T16:09:28;3.63;;;1.05;;
13943;SDS011;7044;53.286;8.534;2022-10-03T16:12:04;4.47;;;1.20;;
13943;SDS011;7044;53.286;8.534;2022-10-03T16:14:41;4.22;;;1.00;;
13943;SDS011;7044;53.286;8.534;2022-10-03T16:17:13;6.20;;;1.23;;
13943;SDS011;7044;53.286;8.534;2022-10-03T16:19:48;3.92;;;0.88;;
13943;SDS011;7044;53.286;8.534;2022-10-03T16:22:20;4.75;;;0.98;;
13943;SDS011;7044;53.286;8.534;2022-10-03T16:25:00;2.95;;;0.95;;
13943;SDS011;7044;53.286;8.534;2022-10-03T16:27:33;5.10;;;1.27;;
13943;SDS011;7044;53.286;8.534;2022-10-03T16:30:16;4.78;;;1.20;;
13943;SDS011;7044;53.286;8.534;2022-10-03T16:32:48;3.25;;;1.15;;
13943;SDS011;7044;53.286;8.534;2022-10-03T16:35:26;8.20;;;1.10;;
13943;SDS011;7044;53.286;8.534;2022-10-03T16:37:58;3.15;;;0.85;;
13943;SDS011;7044;53.286;8.534;2022-10-03T16:40:26;3.80;;;1.00;;
13943;SDS011;7044;53.286;8.534;2022-10-03T16:42:54;2.30;;;1.20;;
13943;SDS011;7044;53.286;8.534;2022-10-03T16:45:24;2.50;;;1.08;;
13943;SDS011;7044;53.286;8.534;2022-10-03T16:47:55;6.28;;;1.30;;
13943;SDS011;7044;53.286;8.534;2022-10-03T16:50:45;9.10;;;1.38;;
13943;SDS011;7044;53.286;8.534;2022-10-03T16:53:16;7.72;;;1.63;;
13943;SDS011;7044;53.286;8.534;2022-10-03T16:55:45;3.13;;;1.30;;
13943;SDS011;7044;53.286;8.534;2022-10-03T16:58:16;6.57;;;1.30;;
13943;SDS011;7044;53.286;8.534;2022-10-03T17:00:48;3.63;;;1.10;;
13943;SDS011;7044;53.286;8.534;2022-10-03T17:03:21;1.55;;;0.95;;
13943;SDS011;7044;53.286;8.534;2022-10-03T17:05:52;2.85;;;1.02;;
13943;SDS011;7044;53.286;8.534;2022-10-03T17:08:25;4.10;;;1.10;;
13943;SDS011;7044;53.286;8.534;2022-10-03T17:10:57;4.28;;;1.20;;
13943;SDS011;7044;53.286;8.534;2022-10-03T17:13:27;2.80;;;1.00;;
13943;SDS011;7044;53.286;8.534;2022-10-03T17:16:06;6.32;;;1.33;;
13943;SDS011;7044;53.286;8.534;2022-10-03T17:18:39;5.63;;;1.30;;
13943;SDS011;7044;53.286;8.534;2022-10-03T17:21:12;6.93;;;1.15;;
13943;SDS011;7044;53.286;8.534;2022-10-03T17:23:47;5.25;;;1.25;;
13943;SDS011;7044;53.286;8.534;2022-10-03T17:26:22;6.47;;;1.20;;
13943;SDS011;7044;53.286;8.534;2022-10-03T17:28:54;2.20;;;0.80;;
13943;SDS011;7044;53.286;8.534;2022-10-03T17:31:28;4.95;;;1.90;;
13943;SDS011;7044;53.286;8.534;2022-10-03T17:34:01;7.45;;;2.30;;
13943;SDS011;7044;53.286;8.534;2022-10-03T17:36:48;5.82;;;2.60;;
13943;SDS011;7044;53.286;8.534;2022-10-03T17:39:31;4.18;;;2.25;;
13943;SDS011;7044;53.286;8.534;2022-10-03T17:42:05;7.40;;;3.47;;
13943;SDS011;7044;53.286;8.534;2022-10-03T17:44:40;9.15;;;3.40;;
13943;SDS011;7044;53.286;8.534;2022-10-03T17:47:21;7.68;;;4.00;;
13943;SDS011;7044;53.286;8.534;2022-10-03T17:49:56;13.10;;;3.63;;
13943;SDS011;7044;53.286;8.534;2022-10-03T17:52:28;8.77;;;2.90;;
13943;SDS011;7044;53.286;8.534;2022-10-03T17:54:56;6.32;;;2.20;;
13943;SDS011;7044;53.286;8.534;2022-10-03T17:57:27;5.07;;;1.65;;
13943;SDS011;7044;53.286;8.534;2022-10-03T17:59:58;2.10;;;1.25;;
13943;SDS011;7044;53.286;8.534;2022-10-03T18:02:33;4.13;;;1.63;;
13943;SDS011;7044;53.286;8.534;2022-10-03T18:05:08;11.82;;;2.00;;
13943;SDS011;7044;53.286;8.534;2022-10-03T18:07:40;5.43;;;1.75;;
13943;SDS011;7044;53.286;8.534;2022-10-03T18:10:15;4.15;;;1.52;;
13943;SDS011;7044;53.286;8.534;2022-10-03T18:12:48;5.30;;;1.48;;
13943;SDS011;7044;53.286;8.534;2022-10-03T18:21:27;3.85;;;1.63;;
13943;SDS011;7044;53.286;8.534;2022-10-03T18:27:02;3.17;;;1.30;;
13943;SDS011;7044;53.286;8.534;2022-10-03T18:29:36;6.38;;;1.40;;
13943;SDS011;7044;53.286;8.534;2022-10-03T18:32:10;4.30;;;1.35;;
13943;SDS011;7044;53.286;8.534;2022-10-03T18:34:42;3.78;;;1.30;;
13943;SDS011;7044;53.286;8.534;2022-10-03T18:40:18;3.92;;;1.35;;
13943;SDS011;7044;53.286;8.534;2022-10-03T18:42:50;5.45;;;1.80;;
13943;SDS011;7044;53.286;8.534;2022-10-03T18:45:19;5.57;;;1.60;;
13943;SDS011;7044;53.286;8.534;2022-10-03T18:47:49;4.30;;;1.40;;
13943;SDS011;7044;53.286;8.534;2022-10-03T18:50:19;5.03;;;1.33;;
13943;SDS011;7044;53.286;8.534;2022-10-03T18:52:51;3.83;;;1.83;;
13943;SDS011;7044;53.286;8.534;2022-10-03T18:55:21;6.53;;;2.00;;
13943;SDS011;7044;53.286;8.534;2022-10-03T18:57:54;8.85;;;1.52;;
13943;SDS011;7044;53.286;8.534;2022-10-03T19:00:26;5.88;;;1.58;;
13943;SDS011;7044;53.286;8.534;2022-10-03T19:02:57;6.10;;;2.00;;
13943;SDS011;7044;53.286;8.534;2022-10-03T19:05:29;4.65;;;2.05;;
13943;SDS011;7044;53.286;8.534;2022-10-03T19:08:00;12.40;;;2.20;;
13943;SDS011;7044;53.286;8.534;2022-10-03T19:10:39;8.38;;;2.55;;
13943;SDS011;7044;53.286;8.534;2022-10-03T19:13:14;3.70;;;2.60;;
13943;SDS011;7044;53.286;8.534;2022-10-03T19:16:03;4.72;;;2.67;;
13943;SDS011;7044;53.286;8.534;2022-10-03T19:18:52;4.72;;;2.90;;
13943;SDS011;7044;53.286;8.534;2022-10-03T19:21:27;6.85;;;2.42;;
13943;SDS011;7044;53.286;8.534;2022-10-03T19:23:58;12.10;;;2.63;;
13943;SDS011;7044;53.286;8.534;2022-10-03T19:26:31;7.05;;;3.08;;
13943;SDS011;7044;53.286;8.534;2022-10-03T19:29:00;8.27;;;2.65;;